sensor_id;sensor_type;location;lat;lon;timestamp;P1;durP1;ratioP1;P2;durP2;ratioP2
75220;SDS011;63802;53.232;6.570;2024-01-10T00:01:17;22.58;;;9.35;;
75220;SDS011;63802;53.232;6.570;2024-01-10T00:03:43;25.02;;;8.20;;
75220;SDS011;63802;53.232;6.570;2024-01-10T00:06:09;20.80;;;8.70;;
75220;SDS011;63802;53.232;6.570;2024-01-10T00:08:38;22.60;;;8.98;;
75220;SDS011;63802;53.232;6.570;2024-01-10T00:11:03;18.85;;;8.75;;
75220;SDS011;63802;53.232;6.570;2024-01-10T00:13:33;19.90;;;8.85;;
75220;SDS011;63802;53.232;6.570;2024-01-10T00:15:58;23.45;;;8.95;;
75220;SDS011;63802;53.232;6.570;2024-01-10T00:18:24;24.05;;;9.50;;
75220;SDS011;63802;53.232;6.570;2024-01-10T00:20:51;16.90;;;6.95;;
75220;SDS011;63802;53.232;6.570;2024-01-10T00:23:18;16.80;;;7.55;;
75220;SDS011;63802;53.232;6.570;2024-01-10T00:25:44;14.68;;;6.65;;
75220;SDS011;63802;53.232;6.570;2024-01-10T00:28:09;18.63;;;8.73;;
75220;SDS011;63802;53.232;6.570;2024-01-10T00:30:35;19.83;;;8.48;;
75220;SDS011;63802;53.232;6.570;2024-01-10T00:33:03;16.10;;;6.78;;
75220;SDS011;63802;53.232;6.570;2024-01-10T00:35:29;21.33;;;8.05;;
75220;SDS011;63802;53.232;6.570;2024-01-10T00:37:55;13.80;;;7.18;;
75220;SDS011;63802;53.232;6.570;2024-01-10T00:40:20;19.05;;;9.13;;
75220;SDS011;63802;53.232;6.570;2024-01-10T00:42:46;19.42;;;7.88;;
75220;SDS011;63802;53.232;6.570;2024-01-10T00:45:12;18.17;;;8.00;;
75220;SDS011;63802;53.232;6.570;2024-01-10T00:47:38;17.58;;;7.20;;
75220;SDS011;63802;53.232;6.570;2024-01-10T00:50:03;14.30;;;6.78;;
75220;SDS011;63802;53.232;6.570;2024-01-10T00:52:29;16.90;;;7.32;;
75220;SDS011;63802;53.232;6.570;2024-01-10T00:54:54;22.73;;;7.63;;
75220;SDS011;63802;53.232;6.570;2024-01-10T00:57:20;16.55;;;7.60;;
75220;SDS011;63802;53.232;6.570;2024-01-10T00:59:46;18.10;;;6.32;;
75220;SDS011;63802;53.232;6.570;2024-01-10T01:02:11;17.02;;;6.35;;
75220;SDS011;63802;53.232;6.570;2024-01-10T01:04:37;19.08;;;7.53;;
75220;SDS011;63802;53.232;6.570;2024-01-10T01:07:02;14.07;;;7.57;;
75220;SDS011;63802;53.232;6.570;2024-01-10T01:09:27;16.45;;;7.25;;
75220;SDS011;63802;53.232;6.570;2024-01-10T01:11:53;15.32;;;6.15;;
75220;SDS011;63802;53.232;6.570;2024-01-10T01:14:19;17.10;;;6.93;;
75220;SDS011;63802;53.232;6.570;2024-01-10T01:16:44;19.52;;;8.05;;
75220;SDS011;63802;53.232;6.570;2024-01-10T01:19:09;14.43;;;7.05;;
75220;SDS011;63802;53.232;6.570;2024-01-10T01:21:35;17.35;;;9.00;;
75220;SDS011;63802;53.232;6.570;2024-01-10T01:24:00;14.68;;;6.82;;
75220;SDS011;63802;53.232;6.570;2024-01-10T01:26:26;19.92;;;8.88;;
75220;SDS011;63802;53.232;6.570;2024-01-10T01:28:51;16.73;;;8.43;;
75220;SDS011;63802;53.232;6.570;2024-01-10T01:31:17;20.73;;;8.60;;
75220;SDS011;63802;53.232;6.570;2024-01-10T01:33:42;15.57;;;7.93;;
75220;SDS011;63802;53.232;6.570;2024-01-10T01:36:08;22.40;;;9.05;;
75220;SDS011;63802;53.232;6.570;2024-01-10T01:38:35;31.00;;;10.38;;
75220;SDS011;63802;53.232;6.570;2024-01-10T01:41:00;20.73;;;8.52;;
75220;SDS011;63802;53.232;6.570;2024-01-10T01:43:26;21.55;;;10.63;;
75220;SDS011;63802;53.232;6.570;2024-01-10T01:45:53;20.42;;;10.20;;
75220;SDS011;63802;53.232;6.570;2024-01-10T01:48:22;23.25;;;10.32;;
75220;SDS011;63802;53.232;6.570;2024-01-10T01:50:49;22.60;;;10.23;;
75220;SDS011;63802;53.232;6.570;2024-01-10T01:53:17;24.70;;;9.98;;
75220;SDS011;63802;53.232;6.570;2024-01-10T01:55:43;26.35;;;10.98;;
75220;SDS011;63802;53.232;6.570;2024-01-10T01:58:10;24.50;;;10.27;;
75220;SDS011;63802;53.232;6.570;2024-01-10T02:00:37;24.38;;;10.88;;
75220;SDS011;63802;53.232;6.570;2024-01-10T02:03:04;20.65;;;9.07;;
75220;SDS011;63802;53.232;6.570;2024-01-10T02:05:30;24.55;;;9.40;;
75220;SDS011;63802;53.232;6.570;2024-01-10T02:07:55;23.25;;;9.48;;
75220;SDS011;63802;53.232;6.570;2024-01-10T02:10:21;21.70;;;10.82;;
75220;SDS011;63802;53.232;6.570;2024-01-10T02:12:48;21.23;;;9.32;;
75220;SDS011;63802;53.232;6.570;2024-01-10T02:15:14;24.02;;;10.15;;
75220;SDS011;63802;53.232;6.570;2024-01-10T02:17:39;22.90;;;9.70;;
75220;SDS011;63802;53.232;6.570;2024-01-10T02:20:14;21.13;;;9.60;;
75220;SDS011;63802;53.232;6.570;2024-01-10T02:22:43;21.15;;;10.77;;
75220;SDS011;63802;53.232;6.570;2024-01-10T02:25:12;28.98;;;11.80;;
75220;SDS011;63802;53.232;6.570;2024-01-10T02:27:41;23.45;;;10.32;;
75220;SDS011;63802;53.232;6.570;2024-01-10T02:30:08;30.73;;;9.50;;
75220;SDS011;63802;53.232;6.570;2024-01-10T02:32:34;27.83;;;11.57;;
75220;SDS011;63802;53.232;6.570;2024-01-10T02:35:00;27.05;;;12.15;;
75220;SDS011;63802;53.232;6.570;2024-01-10T02:37:26;23.95;;;10.18;;
75220;SDS011;63802;53.232;6.570;2024-01-10T02:39:51;27.05;;;12.13;;
75220;SDS011;63802;53.232;6.570;2024-01-10T02:42:17;25.98;;;11.63;;
75220;SDS011;63802;53.232;6.570;2024-01-10T02:44:42;24.15;;;10.02;;
75220;SDS011;63802;53.232;6.570;2024-01-10T02:47:08;33.92;;;12.30;;
75220;SDS011;63802;53.232;6.570;2024-01-10T02:49:34;23.55;;;10.77;;
75220;SDS011;63802;53.232;6.570;2024-01-10T02:51:59;25.73;;;10.70;;
75220;SDS011;63802;53.232;6.570;2024-01-10T02:54:25;29.48;;;11.63;;
75220;SDS011;63802;53.232;6.570;2024-01-10T02:56:51;24.30;;;11.48;;
75220;SDS011;63802;53.232;6.570;2024-01-10T02:59:16;22.73;;;10.73;;
75220;SDS011;63802;53.232;6.570;2024-01-10T03:01:42;23.92;;;11.77;;
75220;SDS011;63802;53.232;6.570;2024-01-10T03:04:08;20.65;;;9.80;;
75220;SDS011;63802;53.232;6.570;2024-01-10T03:06:33;21.83;;;9.35;;
75220;SDS011;63802;53.232;6.570;2024-01-10T03:08:58;25.05;;;11.38;;
75220;SDS011;63802;53.232;6.570;2024-01-10T03:11:24;22.10;;;10.13;;
75220;SDS011;63802;53.232;6.570;2024-01-10T03:13:51;22.38;;;10.55;;
75220;SDS011;63802;53.232;6.570;2024-01-10T03:16:25;24.65;;;10.75;;
75220;SDS011;63802;53.232;6.570;2024-01-10T03:18:50;26.70;;;11.32;;
75220;SDS011;63802;53.232;6.570;2024-01-10T03:21:16;26.35;;;11.25;;
75220;SDS011;63802;53.232;6.570;2024-01-10T03:23:47;21.23;;;10.90;;
75220;SDS011;63802;53.232;6.570;2024-01-10T03:26:13;19.40;;;9.40;;
75220;SDS011;63802;53.232;6.570;2024-01-10T03:28:39;27.88;;;10.60;;
75220;SDS011;63802;53.232;6.570;2024-01-10T03:31:04;24.40;;;11.02;;
75220;SDS011;63802;53.232;6.570;2024-01-10T03:33:29;22.92;;;11.20;;
75220;SDS011;63802;53.232;6.570;2024-01-10T03:35:55;26.70;;;11.30;;
75220;SDS011;63802;53.232;6.570;2024-01-10T03:38:20;29.80;;;10.63;;
75220;SDS011;63802;53.232;6.570;2024-01-10T03:40:45;27.02;;;10.20;;
75220;SDS011;63802;53.232;6.570;2024-01-10T03:43:11;26.45;;;11.13;;
75220;SDS011;63802;53.232;6.570;2024-01-10T03:45:37;25.10;;;10.18;;
75220;SDS011;63802;53.232;6.570;2024-01-10T03:48:03;22.58;;;10.35;;
75220;SDS011;63802;53.232;6.570;2024-01-10T03:50:29;20.38;;;9.45;;
75220;SDS011;63802;53.232;6.570;2024-01-10T03:52:57;26.40;;;11.27;;
75220;SDS011;63802;53.232;6.570;2024-01-10T03:55:22;25.83;;;11.45;;
75220;SDS011;63802;53.232;6.570;2024-01-10T03:57:48;32.95;;;12.55;;
75220;SDS011;63802;53.232;6.570;2024-01-10T04:00:13;24.48;;;10.70;;
75220;SDS011;63802;53.232;6.570;2024-01-10T04:02:39;25.17;;;10.30;;
75220;SDS011;63802;53.232;6.570;2024-01-10T04:05:08;21.23;;;10.55;;
75220;SDS011;63802;53.232;6.570;2024-01-10T04:07:39;22.05;;;10.23;;
75220;SDS011;63802;53.232;6.570;2024-01-10T04:10:06;25.55;;;11.73;;
75220;SDS011;63802;53.232;6.570;2024-01-10T04:12:35;29.27;;;10.35;;
75220;SDS011;63802;53.232;6.570;2024-01-10T04:15:02;19.48;;;10.18;;
75220;SDS011;63802;53.232;6.570;2024-01-10T04:17:29;23.65;;;9.20;;
75220;SDS011;63802;53.232;6.570;2024-01-10T04:19:55;25.92;;;11.02;;
75220;SDS011;63802;53.232;6.570;2024-01-10T04:22:20;25.00;;;12.00;;
75220;SDS011;63802;53.232;6.570;2024-01-10T04:24:48;27.98;;;10.40;;
75220;SDS011;63802;53.232;6.570;2024-01-10T04:27:14;20.65;;;10.40;;
75220;SDS011;63802;53.232;6.570;2024-01-10T04:29:40;22.83;;;10.02;;
75220;SDS011;63802;53.232;6.570;2024-01-10T04:32:06;23.65;;;10.15;;
75220;SDS011;63802;53.232;6.570;2024-01-10T04:34:32;23.60;;;11.40;;
75220;SDS011;63802;53.232;6.570;2024-01-10T04:36:57;24.27;;;9.23;;
75220;SDS011;63802;53.232;6.570;2024-01-10T04:39:23;22.85;;;11.13;;
75220;SDS011;63802;53.232;6.570;2024-01-10T04:41:48;25.35;;;10.93;;
75220;SDS011;63802;53.232;6.570;2024-01-10T04:44:14;23.17;;;11.43;;
75220;SDS011;63802;53.232;6.570;2024-01-10T04:46:39;26.15;;;10.45;;
75220;SDS011;63802;53.232;6.570;2024-01-10T04:49:06;26.55;;;11.23;;
75220;SDS011;63802;53.232;6.570;2024-01-10T04:51:31;24.50;;;10.55;;
75220;SDS011;63802;53.232;6.570;2024-01-10T04:53:57;24.60;;;10.55;;
75220;SDS011;63802;53.232;6.570;2024-01-10T04:56:23;25.25;;;10.45;;
75220;SDS011;63802;53.232;6.570;2024-01-10T04:58:48;21.00;;;10.38;;
75220;SDS011;63802;53.232;6.570;2024-01-10T05:01:13;27.30;;;10.45;;
75220;SDS011;63802;53.232;6.570;2024-01-10T05:03:39;26.20;;;9.65;;
75220;SDS011;63802;53.232;6.570;2024-01-10T05:06:05;20.08;;;10.13;;
75220;SDS011;63802;53.232;6.570;2024-01-10T05:08:30;23.13;;;10.82;;
75220;SDS011;63802;53.232;6.570;2024-01-10T05:10:56;25.35;;;11.32;;
75220;SDS011;63802;53.232;6.570;2024-01-10T05:13:22;29.95;;;11.98;;
75220;SDS011;63802;53.232;6.570;2024-01-10T05:15:47;24.15;;;10.57;;
75220;SDS011;63802;53.232;6.570;2024-01-10T05:18:12;28.23;;;10.25;;
75220;SDS011;63802;53.232;6.570;2024-01-10T05:20:38;27.83;;;10.32;;
75220;SDS011;63802;53.232;6.570;2024-01-10T05:23:03;18.90;;;8.63;;
75220;SDS011;63802;53.232;6.570;2024-01-10T05:25:29;29.88;;;12.25;;
75220;SDS011;63802;53.232;6.570;2024-01-10T05:27:54;23.52;;;10.13;;
75220;SDS011;63802;53.232;6.570;2024-01-10T05:30:20;19.38;;;9.25;;
75220;SDS011;63802;53.232;6.570;2024-01-10T05:32:45;20.15;;;10.10;;
75220;SDS011;63802;53.232;6.570;2024-01-10T05:35:11;26.77;;;10.77;;
75220;SDS011;63802;53.232;6.570;2024-01-10T05:37:36;24.00;;;10.98;;
75220;SDS011;63802;53.232;6.570;2024-01-10T05:40:02;18.52;;;9.30;;
75220;SDS011;63802;53.232;6.570;2024-01-10T05:42:31;25.83;;;10.85;;
75220;SDS011;63802;53.232;6.570;2024-01-10T05:44:57;24.40;;;9.60;;
75220;SDS011;63802;53.232;6.570;2024-01-10T05:47:23;25.45;;;10.48;;
75220;SDS011;63802;53.232;6.570;2024-01-10T05:49:50;20.33;;;8.25;;
75220;SDS011;63802;53.232;6.570;2024-01-10T05:52:18;22.33;;;9.70;;
75220;SDS011;63802;53.232;6.570;2024-01-10T05:54:44;19.83;;;9.80;;
75220;SDS011;63802;53.232;6.570;2024-01-10T05:57:10;19.55;;;9.70;;
75220;SDS011;63802;53.232;6.570;2024-01-10T05:59:36;23.70;;;9.45;;
75220;SDS011;63802;53.232;6.570;2024-01-10T06:02:02;22.00;;;10.15;;
75220;SDS011;63802;53.232;6.570;2024-01-10T06:04:28;23.08;;;10.38;;
75220;SDS011;63802;53.232;6.570;2024-01-10T06:06:56;25.70;;;11.57;;
75220;SDS011;63802;53.232;6.570;2024-01-10T06:09:22;21.95;;;9.57;;
75220;SDS011;63802;53.232;6.570;2024-01-10T06:11:51;24.58;;;10.57;;
75220;SDS011;63802;53.232;6.570;2024-01-10T06:14:16;20.58;;;10.07;;
75220;SDS011;63802;53.232;6.570;2024-01-10T06:16:43;25.17;;;11.65;;
75220;SDS011;63802;53.232;6.570;2024-01-10T06:19:10;24.83;;;11.82;;
75220;SDS011;63802;53.232;6.570;2024-01-10T06:21:36;28.52;;;12.18;;
75220;SDS011;63802;53.232;6.570;2024-01-10T06:24:02;27.83;;;12.30;;
75220;SDS011;63802;53.232;6.570;2024-01-10T06:26:28;28.35;;;12.32;;
75220;SDS011;63802;53.232;6.570;2024-01-10T06:28:53;26.27;;;12.23;;
75220;SDS011;63802;53.232;6.570;2024-01-10T06:31:18;27.45;;;12.65;;
75220;SDS011;63802;53.232;6.570;2024-01-10T06:33:45;28.55;;;13.15;;
75220;SDS011;63802;53.232;6.570;2024-01-10T06:36:11;36.10;;;14.88;;
75220;SDS011;63802;53.232;6.570;2024-01-10T06:38:38;29.27;;;13.13;;
75220;SDS011;63802;53.232;6.570;2024-01-10T06:41:08;35.38;;;13.80;;
75220;SDS011;63802;53.232;6.570;2024-01-10T06:43:34;28.17;;;11.55;;
75220;SDS011;63802;53.232;6.570;2024-01-10T06:45:59;20.40;;;11.65;;
75220;SDS011;63802;53.232;6.570;2024-01-10T06:48:25;25.88;;;11.45;;
75220;SDS011;63802;53.232;6.570;2024-01-10T06:50:50;25.67;;;11.65;;
75220;SDS011;63802;53.232;6.570;2024-01-10T06:53:16;25.33;;;12.20;;
75220;SDS011;63802;53.232;6.570;2024-01-10T06:55:44;27.20;;;13.57;;
75220;SDS011;63802;53.232;6.570;2024-01-10T06:58:09;31.23;;;11.13;;
75220;SDS011;63802;53.232;6.570;2024-01-10T07:00:35;28.95;;;11.88;;
75220;SDS011;63802;53.232;6.570;2024-01-10T07:03:03;28.45;;;13.05;;
75220;SDS011;63802;53.232;6.570;2024-01-10T07:05:29;32.10;;;12.68;;
75220;SDS011;63802;53.232;6.570;2024-01-10T07:07:59;28.23;;;12.35;;
75220;SDS011;63802;53.232;6.570;2024-01-10T07:10:28;25.60;;;10.50;;
75220;SDS011;63802;53.232;6.570;2024-01-10T07:12:54;31.60;;;13.13;;
75220;SDS011;63802;53.232;6.570;2024-01-10T07:15:20;34.33;;;14.35;;
75220;SDS011;63802;53.232;6.570;2024-01-10T07:17:47;33.10;;;12.45;;
75220;SDS011;63802;53.232;6.570;2024-01-10T07:20:13;27.25;;;11.75;;
75220;SDS011;63802;53.232;6.570;2024-01-10T07:22:38;30.02;;;12.45;;
75220;SDS011;63802;53.232;6.570;2024-01-10T07:25:09;28.55;;;12.95;;
75220;SDS011;63802;53.232;6.570;2024-01-10T07:27:35;29.23;;;12.05;;
75220;SDS011;63802;53.232;6.570;2024-01-10T07:30:05;31.80;;;12.95;;
75220;SDS011;63802;53.232;6.570;2024-01-10T07:32:47;28.23;;;10.60;;
75220;SDS011;63802;53.232;6.570;2024-01-10T07:35:13;23.58;;;10.27;;
75220;SDS011;63802;53.232;6.570;2024-01-10T07:37:40;21.58;;;11.35;;
75220;SDS011;63802;53.232;6.570;2024-01-10T07:40:06;23.55;;;10.20;;
75220;SDS011;63802;53.232;6.570;2024-01-10T07:42:38;23.58;;;11.57;;
75220;SDS011;63802;53.232;6.570;2024-01-10T07:45:07;26.55;;;11.57;;
75220;SDS011;63802;53.232;6.570;2024-01-10T07:47:33;27.25;;;12.50;;
75220;SDS011;63802;53.232;6.570;2024-01-10T07:50:03;29.38;;;12.02;;
75220;SDS011;63802;53.232;6.570;2024-01-10T07:52:32;25.25;;;10.10;;
75220;SDS011;63802;53.232;6.570;2024-01-10T07:54:59;28.10;;;11.98;;
75220;SDS011;63802;53.232;6.570;2024-01-10T07:57:26;23.85;;;10.88;;
75220;SDS011;63802;53.232;6.570;2024-01-10T07:59:52;27.40;;;11.18;;
75220;SDS011;63802;53.232;6.570;2024-01-10T08:02:18;28.58;;;10.35;;
75220;SDS011;63802;53.232;6.570;2024-01-10T08:04:43;27.33;;;11.13;;
75220;SDS011;63802;53.232;6.570;2024-01-10T08:07:08;25.45;;;11.30;;
75220;SDS011;63802;53.232;6.570;2024-01-10T08:09:34;24.80;;;11.43;;
75220;SDS011;63802;53.232;6.570;2024-01-10T08:12:00;26.33;;;10.98;;
75220;SDS011;63802;53.232;6.570;2024-01-10T08:14:25;28.92;;;10.30;;
75220;SDS011;63802;53.232;6.570;2024-01-10T08:16:51;22.35;;;10.40;;
75220;SDS011;63802;53.232;6.570;2024-01-10T08:19:19;28.27;;;10.77;;
75220;SDS011;63802;53.232;6.570;2024-01-10T08:21:45;27.75;;;10.00;;
75220;SDS011;63802;53.232;6.570;2024-01-10T08:24:10;29.27;;;10.13;;
75220;SDS011;63802;53.232;6.570;2024-01-10T08:26:36;21.55;;;8.18;;
75220;SDS011;63802;53.232;6.570;2024-01-10T08:29:02;20.42;;;9.23;;
75220;SDS011;63802;53.232;6.570;2024-01-10T08:31:28;30.52;;;9.05;;
75220;SDS011;63802;53.232;6.570;2024-01-10T08:33:54;25.95;;;8.60;;
75220;SDS011;63802;53.232;6.570;2024-01-10T08:36:19;31.15;;;10.05;;
75220;SDS011;63802;53.232;6.570;2024-01-10T08:38:45;24.13;;;10.25;;
75220;SDS011;63802;53.232;6.570;2024-01-10T08:41:11;24.88;;;8.07;;
75220;SDS011;63802;53.232;6.570;2024-01-10T08:43:39;25.02;;;10.20;;
75220;SDS011;63802;53.232;6.570;2024-01-10T08:46:05;34.67;;;9.75;;
75220;SDS011;63802;53.232;6.570;2024-01-10T08:48:31;24.60;;;9.30;;
75220;SDS011;63802;53.232;6.570;2024-01-10T08:50:57;22.05;;;8.18;;
75220;SDS011;63802;53.232;6.570;2024-01-10T08:53:22;23.48;;;7.28;;
75220;SDS011;63802;53.232;6.570;2024-01-10T08:55:51;19.60;;;6.65;;
75220;SDS011;63802;53.232;6.570;2024-01-10T08:58:17;26.63;;;8.80;;
75220;SDS011;63802;53.232;6.570;2024-01-10T09:00:43;25.27;;;7.32;;
75220;SDS011;63802;53.232;6.570;2024-01-10T09:03:08;24.23;;;8.00;;
75220;SDS011;63802;53.232;6.570;2024-01-10T09:05:34;25.27;;;10.68;;
75220;SDS011;63802;53.232;6.570;2024-01-10T09:07:59;23.40;;;8.75;;
75220;SDS011;63802;53.232;6.570;2024-01-10T09:10:25;25.55;;;8.05;;
75220;SDS011;63802;53.232;6.570;2024-01-10T09:12:53;21.27;;;7.18;;
75220;SDS011;63802;53.232;6.570;2024-01-10T09:15:19;17.88;;;6.57;;
75220;SDS011;63802;53.232;6.570;2024-01-10T09:17:45;21.25;;;7.53;;
75220;SDS011;63802;53.232;6.570;2024-01-10T09:20:11;16.20;;;5.82;;
75220;SDS011;63802;53.232;6.570;2024-01-10T09:22:38;22.10;;;6.07;;
75220;SDS011;63802;53.232;6.570;2024-01-10T09:25:06;21.48;;;7.65;;
75220;SDS011;63802;53.232;6.570;2024-01-10T09:27:32;30.48;;;8.13;;
75220;SDS011;63802;53.232;6.570;2024-01-10T09:29:59;32.95;;;8.45;;
75220;SDS011;63802;53.232;6.570;2024-01-10T09:32:28;21.88;;;6.68;;
75220;SDS011;63802;53.232;6.570;2024-01-10T09:34:54;24.25;;;7.93;;
75220;SDS011;63802;53.232;6.570;2024-01-10T09:37:21;19.13;;;5.95;;
75220;SDS011;63802;53.232;6.570;2024-01-10T09:39:48;16.70;;;6.95;;
75220;SDS011;63802;53.232;6.570;2024-01-10T09:42:14;24.48;;;7.50;;
75220;SDS011;63802;53.232;6.570;2024-01-10T09:44:40;23.88;;;7.25;;
75220;SDS011;63802;53.232;6.570;2024-01-10T09:47:07;16.35;;;6.75;;
75220;SDS011;63802;53.232;6.570;2024-01-10T09:49:34;17.83;;;6.30;;
75220;SDS011;63802;53.232;6.570;2024-01-10T09:52:00;21.88;;;7.20;;
75220;SDS011;63802;53.232;6.570;2024-01-10T09:54:30;20.52;;;7.20;;
75220;SDS011;63802;53.232;6.570;2024-01-10T09:56:57;22.67;;;6.20;;
75220;SDS011;63802;53.232;6.570;2024-01-10T09:59:23;20.08;;;6.50;;
75220;SDS011;63802;53.232;6.570;2024-01-10T10:01:50;22.63;;;6.70;;
75220;SDS011;63802;53.232;6.570;2024-01-10T10:04:17;20.75;;;7.07;;
75220;SDS011;63802;53.232;6.570;2024-01-10T10:06:44;24.73;;;7.05;;
75220;SDS011;63802;53.232;6.570;2024-01-10T10:09:10;23.88;;;7.05;;
75220;SDS011;63802;53.232;6.570;2024-01-10T10:11:36;17.35;;;7.88;;
75220;SDS011;63802;53.232;6.570;2024-01-10T10:14:15;19.45;;;6.15;;
75220;SDS011;63802;53.232;6.570;2024-01-10T10:16:41;20.90;;;6.77;;
75220;SDS011;63802;53.232;6.570;2024-01-10T10:19:07;16.42;;;5.93;;
75220;SDS011;63802;53.232;6.570;2024-01-10T10:21:34;12.38;;;4.95;;
75220;SDS011;63802;53.232;6.570;2024-01-10T10:24:00;17.63;;;6.43;;
75220;SDS011;63802;53.232;6.570;2024-01-10T10:26:28;22.50;;;6.20;;
75220;SDS011;63802;53.232;6.570;2024-01-10T10:28:57;21.92;;;5.65;;
75220;SDS011;63802;53.232;6.570;2024-01-10T10:31:23;19.25;;;6.18;;
75220;SDS011;63802;53.232;6.570;2024-01-10T10:33:49;20.52;;;6.63;;
75220;SDS011;63802;53.232;6.570;2024-01-10T10:36:16;18.13;;;5.35;;
75220;SDS011;63802;53.232;6.570;2024-01-10T10:38:43;21.67;;;5.50;;
75220;SDS011;63802;53.232;6.570;2024-01-10T10:41:12;15.20;;;5.15;;
75220;SDS011;63802;53.232;6.570;2024-01-10T10:43:39;16.45;;;5.45;;
75220;SDS011;63802;53.232;6.570;2024-01-10T10:46:06;8.93;;;3.90;;
75220;SDS011;63802;53.232;6.570;2024-01-10T10:48:34;13.68;;;4.75;;
75220;SDS011;63802;53.232;6.570;2024-01-10T10:53:40;13.10;;;4.07;;
75220;SDS011;63802;53.232;6.570;2024-01-10T10:56:10;10.65;;;4.03;;
75220;SDS011;63802;53.232;6.570;2024-01-10T10:58:41;10.07;;;3.55;;
75220;SDS011;63802;53.232;6.570;2024-01-10T11:01:09;8.90;;;4.05;;
75220;SDS011;63802;53.232;6.570;2024-01-10T11:03:37;13.95;;;4.63;;
75220;SDS011;63802;53.232;6.570;2024-01-10T11:06:12;11.00;;;3.83;;
75220;SDS011;63802;53.232;6.570;2024-01-10T11:14:51;17.00;;;4.60;;
75220;SDS011;63802;53.232;6.570;2024-01-10T11:20:18;11.05;;;4.00;;
75220;SDS011;63802;53.232;6.570;2024-01-10T11:25:52;13.38;;;4.05;;
75220;SDS011;63802;53.232;6.570;2024-01-10T11:28:18;9.85;;;3.90;;
75220;SDS011;63802;53.232;6.570;2024-01-10T11:30:50;10.25;;;3.63;;
75220;SDS011;63802;53.232;6.570;2024-01-10T11:46:41;16.95;;;4.28;;
75220;SDS011;63802;53.232;6.570;2024-01-10T11:49:11;10.85;;;3.83;;
75220;SDS011;63802;53.232;6.570;2024-01-10T11:51:41;8.98;;;3.45;;
75220;SDS011;63802;53.232;6.570;2024-01-10T11:54:07;9.45;;;3.90;;
75220;SDS011;63802;53.232;6.570;2024-01-10T11:56:40;11.13;;;4.30;;
75220;SDS011;63802;53.232;6.570;2024-01-10T11:59:11;10.43;;;3.47;;
75220;SDS011;63802;53.232;6.570;2024-01-10T12:01:41;14.95;;;5.45;;
75220;SDS011;63802;53.232;6.570;2024-01-10T12:04:07;11.35;;;4.50;;
75220;SDS011;63802;53.232;6.570;2024-01-10T12:06:36;10.90;;;3.78;;
75220;SDS011;63802;53.232;6.570;2024-01-10T12:09:03;11.77;;;4.32;;
75220;SDS011;63802;53.232;6.570;2024-01-10T12:11:38;11.70;;;4.25;;
75220;SDS011;63802;53.232;6.570;2024-01-10T12:14:05;13.15;;;5.10;;
75220;SDS011;63802;53.232;6.570;2024-01-10T12:16:34;14.35;;;4.10;;
75220;SDS011;63802;53.232;6.570;2024-01-10T12:19:00;11.10;;;5.13;;
75220;SDS011;63802;53.232;6.570;2024-01-10T12:21:26;10.15;;;4.47;;
75220;SDS011;63802;53.232;6.570;2024-01-10T12:23:51;11.90;;;4.10;;
75220;SDS011;63802;53.232;6.570;2024-01-10T12:26:18;14.45;;;4.20;;
75220;SDS011;63802;53.232;6.570;2024-01-10T12:28:56;13.20;;;4.60;;
75220;SDS011;63802;53.232;6.570;2024-01-10T12:31:34;14.90;;;4.88;;
75220;SDS011;63802;53.232;6.570;2024-01-10T12:34:00;15.23;;;5.00;;
75220;SDS011;63802;53.232;6.570;2024-01-10T12:36:25;14.75;;;4.82;;
75220;SDS011;63802;53.232;6.570;2024-01-10T12:38:51;13.25;;;4.78;;
75220;SDS011;63802;53.232;6.570;2024-01-10T12:41:20;11.23;;;4.18;;
75220;SDS011;63802;53.232;6.570;2024-01-10T12:43:55;16.98;;;5.13;;
75220;SDS011;63802;53.232;6.570;2024-01-10T12:46:21;10.90;;;4.13;;
75220;SDS011;63802;53.232;6.570;2024-01-10T12:49:02;15.63;;;3.97;;
75220;SDS011;63802;53.232;6.570;2024-01-10T12:51:32;12.20;;;4.03;;
75220;SDS011;63802;53.232;6.570;2024-01-10T12:53:59;13.30;;;5.10;;
75220;SDS011;63802;53.232;6.570;2024-01-10T12:56:25;14.70;;;4.80;;
75220;SDS011;63802;53.232;6.570;2024-01-10T12:58:52;15.15;;;4.75;;
75220;SDS011;63802;53.232;6.570;2024-01-10T13:01:18;11.90;;;4.80;;
75220;SDS011;63802;53.232;6.570;2024-01-10T13:03:43;13.38;;;4.82;;
75220;SDS011;63802;53.232;6.570;2024-01-10T13:06:09;14.82;;;5.03;;
75220;SDS011;63802;53.232;6.570;2024-01-10T13:08:35;12.77;;;4.78;;
75220;SDS011;63802;53.232;6.570;2024-01-10T13:11:01;14.50;;;4.80;;
75220;SDS011;63802;53.232;6.570;2024-01-10T13:13:33;14.55;;;4.43;;
75220;SDS011;63802;53.232;6.570;2024-01-10T13:15:58;15.45;;;5.50;;
75220;SDS011;63802;53.232;6.570;2024-01-10T13:18:25;12.57;;;4.60;;
75220;SDS011;63802;53.232;6.570;2024-01-10T13:20:51;16.10;;;5.70;;
75220;SDS011;63802;53.232;6.570;2024-01-10T13:23:17;15.50;;;5.07;;
75220;SDS011;63802;53.232;6.570;2024-01-10T13:25:43;15.90;;;5.35;;
75220;SDS011;63802;53.232;6.570;2024-01-10T13:28:09;14.90;;;4.47;;
75220;SDS011;63802;53.232;6.570;2024-01-10T13:30:37;13.38;;;4.22;;
75220;SDS011;63802;53.232;6.570;2024-01-10T13:33:02;15.00;;;4.63;;
75220;SDS011;63802;53.232;6.570;2024-01-10T13:35:28;10.25;;;3.95;;
75220;SDS011;63802;53.232;6.570;2024-01-10T13:37:53;12.85;;;4.93;;
75220;SDS011;63802;53.232;6.570;2024-01-10T13:40:19;12.88;;;5.10;;
75220;SDS011;63802;53.232;6.570;2024-01-10T13:45:15;11.30;;;4.47;;
75220;SDS011;63802;53.232;6.570;2024-01-10T13:47:42;15.50;;;4.55;;
75220;SDS011;63802;53.232;6.570;2024-01-10T13:50:07;17.52;;;5.53;;
75220;SDS011;63802;53.232;6.570;2024-01-10T13:52:33;16.20;;;5.47;;
75220;SDS011;63802;53.232;6.570;2024-01-10T13:54:59;14.43;;;4.40;;
75220;SDS011;63802;53.232;6.570;2024-01-10T13:57:25;15.15;;;5.47;;
75220;SDS011;63802;53.232;6.570;2024-01-10T13:59:51;15.25;;;5.13;;
75220;SDS011;63802;53.232;6.570;2024-01-10T14:02:20;17.88;;;5.65;;
75220;SDS011;63802;53.232;6.570;2024-01-10T14:04:46;17.52;;;5.47;;
75220;SDS011;63802;53.232;6.570;2024-01-10T14:07:12;16.05;;;5.75;;
75220;SDS011;63802;53.232;6.570;2024-01-10T14:09:37;14.93;;;5.78;;
75220;SDS011;63802;53.232;6.570;2024-01-10T14:12:03;18.50;;;4.75;;
75220;SDS011;63802;53.232;6.570;2024-01-10T14:14:29;19.67;;;6.18;;
75220;SDS011;63802;53.232;6.570;2024-01-10T14:16:54;13.18;;;4.85;;
75220;SDS011;63802;53.232;6.570;2024-01-10T14:19:22;15.52;;;5.05;;
75220;SDS011;63802;53.232;6.570;2024-01-10T14:21:48;15.63;;;5.72;;
75220;SDS011;63802;53.232;6.570;2024-01-10T14:24:13;14.48;;;5.05;;
75220;SDS011;63802;53.232;6.570;2024-01-10T14:26:39;11.55;;;4.93;;
75220;SDS011;63802;53.232;6.570;2024-01-10T14:29:04;14.90;;;4.55;;
75220;SDS011;63802;53.232;6.570;2024-01-10T14:31:30;15.13;;;4.70;;
75220;SDS011;63802;53.232;6.570;2024-01-10T14:33:55;15.75;;;5.00;;
75220;SDS011;63802;53.232;6.570;2024-01-10T14:36:21;13.70;;;4.60;;
75220;SDS011;63802;53.232;6.570;2024-01-10T14:38:47;13.23;;;4.30;;
75220;SDS011;63802;53.232;6.570;2024-01-10T14:41:12;13.82;;;5.13;;
75220;SDS011;63802;53.232;6.570;2024-01-10T14:43:38;16.58;;;5.57;;
75220;SDS011;63802;53.232;6.570;2024-01-10T14:46:04;10.48;;;4.30;;
75220;SDS011;63802;53.232;6.570;2024-01-10T14:48:32;10.38;;;3.90;;
75220;SDS011;63802;53.232;6.570;2024-01-10T14:50:58;10.65;;;4.50;;
75220;SDS011;63802;53.232;6.570;2024-01-10T14:53:26;14.73;;;5.03;;
75220;SDS011;63802;53.232;6.570;2024-01-10T14:55:51;13.75;;;4.60;;